Time;durP1;ratioP1;P1;durP2;ratioP2;P2;SDS_P1;SDS_P2;PMS_P1;PMS_P2;Temp;Humidity;BMP_temperature;BMP_pressure;BME280_temperature;BME280_humidity;BME280_pressure;Samples;Min_cycle;Max_cycle;Signal;HPM_P1;HPM_P2
2021/06/03 00:01:33;;;;;;;5.17;3.02;;;;;;;12.31;100.00;99534.53;1705029;84;21578;-79
2021/06/03 00:04:00;;;;;;;7.17;3.50;;;;;;;12.31;100.00;99529.63;1704984;84;21554;-78
2021/06/03 00:06:26;;;;;;;10.72;4.40;;;;;;;12.30;100.00;99531.48;1719772;81;21478;-79
2021/06/03 00:08:53;;;;;;;7.75;4.00;;;;;;;12.29;100.00;99535.24;1738922;82;21010;-79
2021/06/03 00:11:19;;;;;;;9.88;4.30;;;;;;;12.28;100.00;99526.77;1739084;82;21054;-80
2021/06/03 00:13:49;;;;;;;8.95;4.30;;;;;;;12.26;100.00;99523.42;1738750;82;21030;-80
2021/06/03 00:16:16;;;;;;;8.20;3.77;;;;;;;12.26;100.00;99514.46;1738752;81;21042;-79
2021/06/03 00:18:43;;;;;;;8.68;4.35;;;;;;;12.25;100.00;99517.70;1739050;82;21093;-79
2021/06/03 00:21:12;;;;;;;9.50;4.50;;;;;;;12.25;100.00;99510.06;1744423;82;20995;-79
2021/06/03 00:23:40;;;;;;;9.20;5.47;;;;;;;12.24;100.00;99505.70;1749832;81;21011;-79
2021/06/03 00:26:07;;;;;;;12.45;5.33;;;;;;;12.22;100.00;99505.05;1749580;82;21019;-79
2021/06/03 00:28:35;;;;;;;11.15;5.65;;;;;;;12.21;100.00;99502.01;1746022;81;21524;-78
2021/06/03 00:31:02;;;;;;;12.75;5.62;;;;;;;12.18;100.00;99497.80;1738783;82;20987;-79
2021/06/03 00:33:29;;;;;;;14.05;6.10;;;;;;;12.16;100.00;99495.80;1738933;82;21508;-78
2021/06/03 00:35:55;;;;;;;16.32;7.25;;;;;;;12.15;100.00;99494.97;1738539;82;21042;-79
2021/06/03 00:38:24;;;;;;;13.50;5.90;;;;;;;12.13;100.00;99496.22;1738274;82;21057;-79
2021/06/03 00:40:50;;;;;;;14.85;6.50;;;;;;;12.08;100.00;99502.73;1738563;81;21590;-78
2021/06/03 00:43:19;;;;;;;15.80;6.83;;;;;;;12.05;100.00;99499.88;1738403;81;21519;-80
2021/06/03 00:45:47;;;;;;;12.82;5.92;;;;;;;12.03;100.00;99493.81;1738605;82;21046;-79
2021/06/03 00:48:16;;;;;;;11.80;5.85;;;;;;;12.01;100.00;99493.18;1738461;82;21523;-79
2021/06/03 00:50:48;;;;;;;9.75;4.65;;;;;;;12.00;100.00;99499.61;1738727;82;21022;-78
2021/06/03 00:53:16;;;;;;;11.22;4.20;;;;;;;11.95;100.00;99501.57;1738646;82;21054;-78
2021/06/03 00:55:51;;;;;;;7.78;3.98;;;;;;;11.92;100.00;99495.70;1738500;81;21125;-79
2021/06/03 00:58:21;;;;;;;8.58;3.30;;;;;;;11.89;100.00;99489.27;1713406;83;21079;-78
2021/06/03 01:00:49;;;;;;;6.25;3.58;;;;;;;11.86;100.00;99485.06;1713181;84;21067;-78
2021/06/03 01:03:17;;;;;;;7.87;3.20;;;;;;;11.82;100.00;99485.66;1713147;83;21462;-77
2021/06/03 01:05:49;;;;;;;7.62;3.42;;;;;;;11.80;100.00;99479.08;1713434;82;21110;-79
2021/06/03 01:08:19;;;;;;;4.85;2.67;;;;;;;11.78;100.00;99481.14;1721762;83;21507;-79
2021/06/03 01:10:59;;;;;;;6.17;3.27;;;;;;;11.74;100.00;99473.92;1721890;83;21077;-78
2021/06/03 01:13:58;;;;;;;5.92;2.83;;;;;;;11.70;100.00;99475.84;1721688;83;21011;-79
2021/06/03 01:16:26;;;;;;;6.00;2.90;;;;;;;11.65;100.00;99477.78;1721575;83;21014;-77
2021/06/03 01:18:55;;;;;;;3.02;2.62;;;;;;;11.62;100.00;99464.62;1721495;82;21081;-77
2021/06/03 01:21:34;;;;;;;8.90;2.60;;;;;;;11.57;100.00;99467.06;1729946;83;21041;-78
2021/06/03 01:24:24;;;;;;;7.65;2.95;;;;;;;11.52;100.00;99464.92;1734290;83;21092;-77
2021/06/03 01:26:58;;;;;;;6.58;3.05;;;;;;;11.48;100.00;99474.47;1733729;83;21064;-76
2021/06/03 01:29:26;;;;;;;5.78;2.67;;;;;;;11.46;100.00;99468.93;1729538;83;21021;-77
2021/06/03 01:31:55;;;;;;;7.37;2.85;;;;;;;11.43;100.00;99469.30;1726908;83;21538;-77
2021/06/03 01:34:26;;;;;;;5.97;3.02;;;;;;;11.39;100.00;99468.84;1726869;83;21025;-79
2021/06/03 01:36:55;;;;;;;3.65;2.40;;;;;;;11.35;100.00;99464.33;1726073;83;21028;-79
2021/06/03 01:39:24;;;;;;;6.85;2.90;;;;;;;11.29;100.00;99465.07;1703095;83;21092;-79
2021/06/03 01:41:53;;;;;;;4.47;2.55;;;;;;;11.25;100.00;99461.60;1703348;83;20997;-78
2021/06/03 01:44:23;;;;;;;5.85;2.72;;;;;;;11.22;100.00;99468.21;1726950;83;21036;-79
2021/06/03 01:46:52;;;;;;;7.50;2.52;;;;;;;11.19;100.00;99466.73;1726814;83;20964;-78
2021/06/03 01:49:21;;;;;;;3.55;2.37;;;;;;;11.18;100.00;99468.28;1727130;83;21091;-78
2021/06/03 01:51:47;;;;;;;4.08;2.40;;;;;;;11.12;100.00;99463.11;1727144;82;21060;-79
2021/06/03 01:54:17;;;;;;;7.08;2.10;;;;;;;11.11;100.00;99454.66;1732985;81;21057;-77
2021/06/03 01:56:46;;;;;;;4.12;2.20;;;;;;;11.07;100.00;99456.07;1760420;81;21041;-76
2021/06/03 01:59:13;;;;;;;3.52;2.17;;;;;;;11.02;100.00;99449.86;1760203;81;21566;-78
2021/06/03 02:01:42;;;;;;;4.12;2.22;;;;;;;11.00;100.00;99447.03;1760533;81;21049;-78
2021/06/03 02:04:12;;;;;;;2.80;1.77;;;;;;;10.98;100.00;99451.80;1760327;81;21072;-77
2021/06/03 02:06:43;;;;;;;4.78;2.00;;;;;;;10.96;100.00;99448.41;1733187;81;21006;-78
2021/06/03 02:09:11;;;;;;;3.10;1.98;;;;;;;10.94;100.00;99460.80;1760581;81;21053;-77
2021/06/03 02:11:42;;;;;;;3.25;1.98;;;;;;;10.92;100.00;99449.83;1760749;81;21018;-78
2021/06/03 02:14:13;;;;;;;3.00;2.70;;;;;;;10.90;100.00;99461.35;1713650;84;21100;-80
2021/06/03 02:16:58;;;;;;;4.42;2.27;;;;;;;10.88;100.00;99452.07;1709227;84;21046;-77
2021/06/03 02:20:02;;;;;;;4.62;2.42;;;;;;;10.88;100.00;99449.88;1699091;84;21543;-78
2021/06/03 02:22:30;;;;;;;2.60;2.40;;;;;;;10.87;100.00;99453.11;1694485;85;21067;-78
2021/06/03 02:24:59;;;;;;;2.30;2.10;;;;;;;10.84;100.00;99452.13;1694517;85;21036;-79
2021/06/03 02:27:26;;;;;;;5.87;2.22;;;;;;;10.84;100.00;99450.78;1694578;84;21060;-79
2021/06/03 02:29:55;;;;;;;2.08;1.90;;;;;;;10.84;100.00;99452.13;1687168;85;21043;-79
2021/06/03 02:32:23;;;;;;;4.53;2.47;;;;;;;10.85;100.00;99463.25;1686627;85;21108;-78
2021/06/03 02:34:53;;;;;;;5.45;2.80;;;;;;;10.84;100.00;99450.78;1686852;85;21653;-80
2021/06/03 02:37:21;;;;;;;5.70;2.30;;;;;;;10.82;100.00;99450.95;1687017;85;21011;-80
2021/06/03 02:39:52;;;;;;;2.72;2.27;;;;;;;10.80;100.00;99448.09;1686830;85;21019;-80
2021/06/03 02:42:19;;;;;;;3.83;2.45;;;;;;;10.81;100.00;99447.91;1683398;85;20983;-79
2021/06/03 02:44:48;;;;;;;3.50;2.62;;;;;;;10.82;100.00;99445.55;1687076;85;21533;-80
2021/06/03 02:47:18;;;;;;;3.62;2.50;;;;;;;10.82;100.00;99448.78;1687046;85;21011;-80
2021/06/03 02:49:44;;;;;;;2.67;2.42;;;;;;;10.80;100.00;99448.95;1687133;85;21043;-79
2021/06/03 02:52:12;;;;;;;6.03;2.85;;;;;;;10.79;100.00;99445.09;1687130;85;21070;-80
2021/06/03 02:54:40;;;;;;;5.53;1.97;;;;;;;10.79;100.00;99443.21;1687009;85;21122;-77
2021/06/03 02:57:08;;;;;;;7.20;2.87;;;;;;;10.79;100.00;99440.51;1664392;85;20992;-81
2021/06/03 02:59:35;;;;;;;2.75;2.35;;;;;;;10.80;100.00;99444.91;1659356;86;21059;-79
2021/06/03 03:02:03;;;;;;;3.30;2.47;;;;;;;10.79;100.00;99436.45;1661145;86;20996;-79
2021/06/03 03:04:32;;;;;;;2.65;2.20;;;;;;;10.79;100.00;99441.86;1660113;87;21099;-79
2021/06/03 03:07:00;;;;;;;3.77;2.25;;;;;;;10.80;100.00;99438.63;1635502;87;21141;-79
2021/06/03 03:09:28;;;;;;;4.28;2.30;;;;;;;10.82;100.00;99439.31;1644828;87;21046;-80
2021/06/03 03:11:56;;;;;;;2.70;2.15;;;;;;;10.82;100.00;99439.31;1709166;84;20974;-80
2021/06/03 03:14:23;;;;;;;5.33;2.17;;;;;;;10.81;100.00;99438.45;1713956;84;21534;-80
2021/06/03 03:16:51;;;;;;;2.20;2.00;;;;;;;10.81;100.00;99440.32;1713844;84;21010;-81
2021/06/03 03:19:19;;;;;;;3.00;2.20;;;;;;;10.82;100.00;99429.84;1713660;84;21018;-79
2021/06/03 03:21:45;;;;;;;3.87;2.40;;;;;;;10.82;100.00;99427.14;1735817;82;20983;-80
2021/06/03 03:24:12;;;;;;;3.33;2.22;;;;;;;10.83;100.00;99431.50;1742242;82;21051;-81
2021/06/03 03:26:39;;;;;;;2.42;2.20;;;;;;;10.83;100.00;99434.21;1741776;82;21499;-82
2021/06/03 03:29:07;;;;;;;3.65;2.17;;;;;;;10.82;100.00;99436.61;1742257;82;21485;-81
2021/06/03 03:31:34;;;;;;;3.08;2.40;;;;;;;10.82;100.00;99425.79;1742139;82;21063;-80
2021/06/03 03:34:03;;;;;;;5.60;2.58;;;;;;;10.82;100.00;99424.44;1714959;82;21030;-80
2021/06/03 03:36:31;;;;;;;3.70;2.52;;;;;;;10.82;100.00;99427.97;1741986;82;21028;-81
2021/06/03 03:38:58;;;;;;;2.42;2.20;;;;;;;10.84;100.00;99429.14;1741791;82;21102;-80
2021/06/03 03:41:26;;;;;;;2.83;2.00;;;;;;;10.85;100.00;99424.04;1741818;82;21102;-81
2021/06/03 03:43:56;;;;;;;3.40;2.08;;;;;;;10.86;100.00;99423.55;1743167;82;21050;-81
2021/06/03 03:46:27;;;;;;;3.87;2.10;;;;;;;10.84;100.00;99434.55;1701497;84;21130;-80
2021/06/03 03:48:56;;;;;;;5.58;2.30;;;;;;;10.84;100.00;99430.49;1649056;86;21039;-79
2021/06/03 03:51:23;;;;;;;3.47;2.20;;;;;;;10.87;100.00;99427.91;1647403;86;21535;-79
2021/06/03 03:53:50;;;;;;;3.87;1.85;;;;;;;10.88;100.00;99431.78;1669341;86;21086;-81
2021/06/03 03:56:19;;;;;;;3.55;1.95;;;;;;;10.90;100.00;99425.67;1666372;86;21161;-82
2021/06/03 03:58:48;;;;;;;3.27;2.20;;;;;;;10.90;100.00;99428.89;1669398;86;21078;-80
2021/06/03 04:01:15;;;;;;;4.58;2.27;;;;;;;10.91;100.00;99431.41;1669353;86;21101;-82
2021/06/03 04:03:43;;;;;;;4.70;2.40;;;;;;;10.91;100.00;99434.64;1669158;86;21563;-78
2021/06/03 04:06:12;;;;;;;3.50;2.33;;;;;;;10.92;100.00;99433.08;1669681;86;21043;-82
2021/06/03 04:08:39;;;;;;;3.75;2.40;;;;;;;10.92;100.00;99438.48;1677819;84;21141;-81
2021/06/03 04:11:06;;;;;;;3.90;2.05;;;;;;;10.92;100.00;99443.06;1678431;85;21538;-79
2021/06/03 04:13:37;;;;;;;4.12;2.42;;;;;;;10.93;100.00;99440.70;1692589;84;21053;-78
2021/06/03 04:16:07;;;;;;;5.85;2.35;;;;;;;10.93;100.00;99437.47;1696163;85;21125;-79
2021/06/03 04:18:35;;;;;;;6.80;2.40;;;;;;;10.95;100.00;99442.17;1666913;86;21110;-80
2021/06/03 04:21:02;;;;;;;4.53;2.37;;;;;;;10.98;100.00;99446.39;1696612;84;20988;-80
2021/06/03 04:23:30;;;;;;;3.67;2.30;;;;;;;10.98;100.00;99448.57;1700139;84;21044;-79
2021/06/03 04:25:57;;;;;;;3.30;2.22;;;;;;;10.98;100.00;99445.86;1650574;85;21060;-79
2021/06/03 04:28:24;;;;;;;3.12;2.37;;;;;;;10.98;100.00;99445.03;1680471;85;21018;-80
2021/06/03 04:30:51;;;;;;;3.62;2.10;;;;;;;10.97;100.00;99439.28;1671986;86;21010;-80
2021/06/03 04:33:22;;;;;;;3.55;2.60;;;;;;;10.97;100.00;99441.99;1671716;86;21058;-79
2021/06/03 04:35:46;;;;;;;3.87;2.85;;;;;;;10.95;100.00;99437.28;1668190;86;21058;-81
2021/06/03 04:38:12;;;;;;;5.03;3.00;;;;;;;10.96;100.00;99441.16;1671512;84;21568;-81
2021/06/03 04:40:39;;;;;;;2.77;2.30;;;;;;;10.98;100.00;99445.03;1671694;86;21033;-81
2021/06/03 04:43:06;;;;;;;3.22;2.20;;;;;;;10.99;100.00;99438.58;1671800;86;21110;-81
2021/06/03 04:45:36;;;;;;;2.60;2.40;;;;;;;11.01;100.00;99437.37;1671340;85;21141;-78
2021/06/03 04:48:04;;;;;;;4.10;2.47;;;;;;;11.04;100.00;99442.08;1671723;86;21077;-81
2021/06/03 04:50:32;;;;;;;2.15;2.02;;;;;;;11.06;100.00;99441.38;1671818;86;21520;-80
2021/06/03 04:53:00;;;;;;;2.27;2.08;;;;;;;11.08;100.00;99447.43;1671317;86;21113;-80
2021/06/03 04:55:27;;;;;;;2.52;2.00;;;;;;;11.09;100.00;99441.84;1678854;84;21047;-79
2021/06/03 04:57:54;;;;;;;4.10;2.62;;;;;;;11.11;100.00;99437.59;1700068;84;21499;-79
2021/06/03 05:00:30;;;;;;;3.22;2.35;;;;;;;11.13;100.00;99436.36;1700149;83;21057;-79
2021/06/03 05:02:58;;;;;;;4.12;2.70;;;;;;;11.15;100.00;99447.00;1700001;84;21472;-80
2021/06/03 05:05:26;;;;;;;3.35;2.47;;;;;;;11.17;100.00;99436.33;1699883;83;21034;-79
2021/06/03 05:07:54;;;;;;;2.30;2.08;;;;;;;11.21;100.00;99434.08;1688760;84;21157;-81
2021/06/03 05:10:23;;;;;;;3.35;2.42;;;;;;;11.25;100.00;99437.24;1694856;85;20999;-80
2021/06/03 05:12:50;;;;;;;2.27;1.80;;;;;;;11.29;100.00;99438.01;1693488;85;21029;-79
2021/06/03 05:15:18;;;;;;;4.95;2.77;;;;;;;11.35;100.00;99435.91;1680371;85;21500;-80
2021/06/03 05:17:45;;;;;;;2.75;2.50;;;;;;;11.40;100.00;99433.96;1675786;86;21037;-81
2021/06/03 05:20:15;;;;;;;4.87;2.30;;;;;;;11.43;100.00;99443.06;1685755;84;21030;-82
2021/06/03 05:22:43;;;;;;;5.60;3.22;;;;;;;11.46;100.00;99434.56;1657290;87;21511;-83
2021/06/03 05:25:14;;;;;;;4.25;3.22;;;;;;;11.47;100.00;99447.05;1683339;85;21043;-81
2021/06/03 05:27:42;;;;;;;19.57;8.03;;;;;;;11.48;100.00;99437.91;1678249;85;21019;-80
2021/06/03 05:30:10;;;;;;;5.00;2.90;;;;;;;11.47;100.00;99445.70;1678706;85;21095;-81
2021/06/03 05:32:38;;;;;;;4.22;2.77;;;;;;;11.45;100.00;99433.40;1675450;85;21013;-82
2021/06/03 05:35:09;;;;;;;6.15;3.42;;;;;;;11.43;100.00;99441.70;1678894;85;21039;-81
2021/06/03 05:37:38;;;;;;;4.75;2.90;;;;;;;11.40;100.00;99444.30;1667753;85;21060;-83
2021/06/03 05:40:06;;;;;;;11.03;6.08;;;;;;;11.38;100.00;99440.95;1678750;85;21022;-82
2021/06/03 05:42:33;;;;;;;4.17;3.00;;;;;;;11.39;100.00;99432.30;1676675;85;21009;-82
2021/06/03 05:45:00;;;;;;;3.58;2.60;;;;;;;11.40;100.00;99436.67;1680583;85;21507;-84
2021/06/03 05:47:27;;;;;;;5.05;2.80;;;;;;;11.43;100.00;99436.81;1676859;85;21210;-81
2021/06/03 05:49:54;;;;;;;4.15;2.95;;;;;;;11.44;100.00;99433.06;1670324;86;21041;-80
2021/06/03 05:52:21;;;;;;;4.10;2.87;;;;;;;11.44;100.00;99440.69;1670455;86;21096;-81
2021/06/03 05:54:50;;;;;;;6.80;3.60;;;;;;;11.46;100.00;99440.50;1670236;86;21045;-81
2021/06/03 05:57:17;;;;;;;9.20;5.37;;;;;;;11.47;100.00;99444.34;1670663;86;21158;-83
2021/06/03 05:59:44;;;;;;;2.58;2.37;;;;;;;11.49;100.00;99434.68;1670346;86;21042;-79
2021/06/03 06:02:18;;;;;;;3.80;2.60;;;;;;;11.49;100.00;99436.90;1669965;86;21057;-81
2021/06/03 06:07:26;;;;;;;2.92;2.50;;;;;;;11.55;100.00;99436.12;1680727;83;21055;-83
2021/06/03 06:09:55;;;;;;;5.05;3.30;;;;;;;11.57;100.00;99442.17;1713765;84;21026;-83
2021/06/03 06:12:22;;;;;;;5.00;3.10;;;;;;;11.59;100.00;99437.92;1714253;84;20991;-83
2021/06/03 06:14:50;;;;;;;5.80;3.75;;;;;;;11.62;100.00;99450.25;1713630;84;21042;-82
2021/06/03 06:17:18;;;;;;;9.33;5.28;;;;;;;11.62;100.00;99445.67;1713890;84;21046;-82
2021/06/03 06:19:45;;;;;;;12.65;7.90;;;;;;;11.66;100.00;99434.77;1714003;84;21466;-81
2021/06/03 06:22:13;;;;;;;14.83;7.20;;;;;;;11.69;100.00;99434.39;1712470;84;21298;-80
2021/06/03 06:24:40;;;;;;;13.35;7.75;;;;;;;11.68;100.00;99433.22;1712698;84;21104;-83
2021/06/03 06:27:08;;;;;;;14.63;9.03;;;;;;;11.72;100.00;99441.27;1712742;84;21028;-83
2021/06/03 06:29:36;;;;;;;15.20;7.75;;;;;;;11.77;100.00;99438.83;1720578;82;21070;-80
2021/06/03 06:32:03;;;;;;;6.85;4.35;;;;;;;11.80;100.00;99440.33;1739152;82;21018;-83
2021/06/03 06:34:29;;;;;;;3.65;3.20;;;;;;;11.81;100.00;99438.78;1739641;82;21015;-81
2021/06/03 06:36:56;;;;;;;5.95;4.03;;;;;;;11.86;100.00;99445.78;1718564;82;21023;-82
2021/06/03 06:39:24;;;;;;;7.87;4.17;;;;;;;11.87;100.00;99447.47;1739258;81;21055;-82
2021/06/03 06:41:50;;;;;;;10.03;5.50;;;;;;;11.89;100.00;99444.05;1739795;82;21492;-81
2021/06/03 06:44:17;;;;;;;7.58;3.98;;;;;;;11.89;100.00;99452.70;1740252;82;20990;-82
2021/06/03 06:46:44;;;;;;;9.25;5.15;;;;;;;11.87;100.00;99446.64;1719296;82;20998;-81
2021/06/03 06:49:13;;;;;;;12.50;6.12;;;;;;;11.87;100.00;99454.25;1739806;82;21019;-83
2021/06/03 06:51:39;;;;;;;10.32;4.58;;;;;;;11.84;100.00;99445.14;1739170;82;21053;-81
2021/06/03 06:54:06;;;;;;;10.03;5.00;;;;;;;11.87;100.00;99447.47;1739743;82;21053;-80
2021/06/03 06:56:34;;;;;;;29.63;12.95;;;;;;;11.93;100.00;99449.95;1739405;82;21602;-78
2021/06/03 06:59:01;;;;;;;26.82;12.95;;;;;;;11.99;100.00;99455.96;1739013;82;21030;-76
2021/06/03 07:01:28;;;;;;;13.18;6.35;;;;;;;11.96;100.00;99459.87;1739736;82;21037;-78
2021/06/03 07:03:54;;;;;;;10.38;5.22;;;;;;;11.92;100.00;99461.84;1740102;81;21034;-78
2021/06/03 07:18:05;;;;;;;6.62;3.85;;;;;;;12.04;100.00;99470.27;1726295;78;21526;-79
2021/06/03 07:20:34;;;;;;;8.68;3.60;;;;;;;12.07;100.00;99468.00;1683080;84;21021;-79
2021/06/03 07:23:04;;;;;;;11.25;4.78;;;;;;;12.12;100.00;99472.32;1688510;84;21015;-79
2021/06/03 07:25:32;;;;;;;6.37;3.83;;;;;;;12.17;100.00;99462.27;1691651;83;21027;-79
2021/06/03 07:27:59;;;;;;;7.28;4.15;;;;;;;12.18;100.00;99472.58;1680904;85;21042;-79
2021/06/03 07:30:26;;;;;;;6.62;3.80;;;;;;;12.17;100.00;99477.70;1688695;85;21077;-79
2021/06/03 07:32:54;;;;;;;28.35;15.68;;;;;;;12.19;100.00;99471.55;1684598;85;21560;-83
2021/06/03 07:35:21;;;;;;;28.83;16.70;;;;;;;12.20;100.00;99478.14;1680311;85;21033;-80
2021/06/03 07:37:49;;;;;;;32.70;17.12;;;;;;;12.24;100.00;99482.66;1683152;85;21067;-79
2021/06/03 07:40:20;;;;;;;31.75;15.90;;;;;;;12.27;100.00;99479.03;1670476;85;20987;-80
2021/06/03 07:42:47;;;;;;;21.97;10.75;;;;;;;12.30;100.00;99480.50;1674018;85;20979;-79
2021/06/03 07:45:20;;;;;;;20.80;10.80;;;;;;;12.29;100.00;99489.69;1678672;85;21022;-78
2021/06/03 07:47:53;;;;;;;20.27;9.88;;;;;;;12.29;100.00;99493.22;1645549;87;21069;-78
2021/06/03 07:50:20;;;;;;;19.17;10.23;;;;;;;12.37;100.00;99496.30;1697351;83;21021;-78
2021/06/03 07:52:47;;;;;;;18.07;8.03;;;;;;;12.41;100.00;99496.75;1691407;84;21089;-78
2021/06/03 07:55:15;;;;;;;12.50;5.95;;;;;;;12.42;100.00;99501.98;1690479;84;21029;-83
2021/06/03 07:57:44;;;;;;;8.70;4.55;;;;;;;12.45;100.00;99506.19;1692118;84;21010;-84
2021/06/03 08:00:14;;;;;;;8.78;4.80;;;;;;;12.46;100.00;99504.61;1694875;83;21042;-81
2021/06/03 08:02:43;;;;;;;9.93;5.33;;;;;;;12.44;100.00;99505.33;1706442;84;21077;-82
2021/06/03 08:05:14;;;;;;;9.65;5.65;;;;;;;12.46;100.00;99504.61;1691435;84;21045;-78
2021/06/03 08:07:41;;;;;;;9.83;5.65;;;;;;;12.47;100.00;99514.43;1689593;84;20986;-80
2021/06/03 08:10:11;;;;;;;11.28;7.08;;;;;;;12.52;100.00;99507.91;1694088;84;21065;-82
2021/06/03 08:12:38;;;;;;;13.13;6.95;;;;;;;12.58;100.00;99508.16;1699889;84;21021;-81
2021/06/03 08:15:07;;;;;;;8.33;4.78;;;;;;;12.63;100.00;99513.30;1687550;84;21026;-78
2021/06/03 08:17:35;;;;;;;78.42;40.05;;;;;;;12.66;100.00;99526.48;1670697;85;21011;-79
2021/06/03 08:20:03;;;;;;;69.12;29.82;;;;;;;12.67;100.00;99529.49;1703716;84;21069;-80
2021/06/03 08:22:30;;;;;;;125.42;49.95;;;;;;;12.66;100.00;99531.91;1694718;84;21447;-78
2021/06/03 08:24:58;;;;;;;71.22;32.88;;;;;;;12.64;100.00;99534.48;1658341;86;21060;-80
2021/06/03 08:27:25;;;;;;;124.90;51.42;;;;;;;12.62;100.00;99538.73;1674886;85;20998;-77
2021/06/03 08:29:52;;;;;;;41.28;17.73;;;;;;;12.61;100.00;99546.57;1690976;84;20998;-77
2021/06/03 08:32:19;;;;;;;138.35;58.13;;;;;;;12.62;100.00;99550.11;1694002;84;21018;-75
2021/06/03 08:34:47;;;;;;;31.82;13.90;;;;;;;12.64;100.00;99551.61;1691321;83;21018;-80
2021/06/03 08:37:15;;;;;;;17.42;6.47;;;;;;;12.68;100.00;99553.41;1692764;84;21090;-79
2021/06/03 08:39:42;;;;;;;57.45;28.52;;;;;;;12.69;100.00;99557.78;1685698;83;21113;-79
2021/06/03 08:42:12;;;;;;;106.67;48.13;;;;;;;12.70;100.00;99568.97;1689719;84;21013;-80
2021/06/03 08:44:39;;;;;;;54.77;24.72;;;;;;;12.70;100.00;99573.86;1693133;83;21039;-78
2021/06/03 08:47:08;;;;;;;153.65;65.85;;;;;;;12.72;100.00;99576.38;1693147;84;21038;-79
2021/06/03 08:49:37;;;;;;;48.45;22.07;;;;;;;12.72;100.00;99580.45;1697055;84;21026;-80
2021/06/03 08:52:06;;;;;;;62.25;29.92;;;;;;;12.72;100.00;99585.35;1687421;84;21081;-82
2021/06/03 08:54:36;;;;;;;48.87;21.95;;;;;;;12.74;100.00;99585.16;1677382;85;21074;-81
2021/06/03 08:57:11;;;;;;;49.03;22.37;;;;;;;12.75;100.00;99588.20;1676838;85;21029;-76
2021/06/03 08:59:38;;;;;;;27.40;12.00;;;;;;;12.78;100.00;99591.86;1685576;84;21050;-76
2021/06/03 09:02:06;;;;;;;31.42;13.30;;;;;;;12.79;100.00;99594.91;1689251;84;21504;-80
2021/06/03 09:04:33;;;;;;;47.70;24.50;;;;;;;12.82;100.00;99597.23;1699435;84;21003;-80
2021/06/03 09:07:02;;;;;;;12.55;6.25;;;;;;;12.85;100.00;99603.61;1691158;84;21037;-74
2021/06/03 09:09:34;;;;;;;40.05;20.82;;;;;;;12.88;100.00;99605.93;1689413;84;21010;-77
2021/06/03 09:12:27;;;;;;;31.70;15.15;;;;;;;12.90;100.00;99603.86;1683501;83;21058;-76
2021/06/03 09:15:23;;;;;;;35.78;16.27;;;;;;;12.94;100.00;99602.11;1656987;86;21042;-76
2021/06/03 09:17:55;;;;;;;24.92;10.35;;;;;;;13.00;100.00;99613.03;1638897;86;21111;-75
2021/06/03 09:24:42;;;;;;;30.72;16.77;;;;;;;13.09;100.00;99617.27;1641531;84;20143;-75
2021/06/03 09:28:12;;;;;;;23.47;9.85;;;;;;;13.13;100.00;99614.16;1642473;85;21039;-78
2021/06/03 09:31:33;;;;;;;23.12;8.63;;;;;;;13.19;100.00;99616.93;1668852;84;21082;-77
2021/06/03 09:34:25;;;;;;;20.30;7.55;;;;;;;13.24;100.00;99618.53;1626040;85;21113;-76
2021/06/03 09:41:06;;;;;;;21.00;9.50;;;;;;;13.29;100.00;99640.47;1588370;88;21150;-76
2021/06/03 09:43:49;;;;;;;46.88;26.33;;;;;;;13.31;100.00;99637.59;1601697;90;21670;-78
2021/06/03 09:46:34;;;;;;;67.87;34.63;;;;;;;13.37;100.00;99647.67;1595682;88;21058;-83
2021/06/03 09:49:27;;;;;;;22.53;11.37;;;;;;;13.46;100.00;99647.00;1589615;90;21143;-82
2021/06/03 09:52:18;;;;;;;55.98;29.57;;;;;;;13.50;100.00;99653.70;1537989;92;21118;-81
2021/06/03 09:54:58;;;;;;;90.95;47.03;;;;;;;13.54;100.00;99650.89;1527971;93;21556;-79
2021/06/03 09:57:38;;;;;;;63.25;35.25;;;;;;;13.57;100.00;99654.58;1549475;93;21129;-77
2021/06/03 10:00:22;;;;;;;23.45;11.85;;;;;;;13.56;100.00;99659.67;1485522;96;21162;-79
2021/06/03 10:03:01;;;;;;;74.40;45.78;;;;;;;13.53;100.00;99662.81;1469662;98;21113;-77
2021/06/03 10:05:35;;;;;;;98.07;54.20;;;;;;;13.52;100.00;99661.66;1460885;98;21281;-75
2021/06/03 10:11:50;;;;;;;52.85;29.82;;;;;;;13.53;100.00;99660.59;1416877;96;21634;-78
2021/06/03 10:14:17;;;;;;;61.33;35.08;;;;;;;13.60;100.00;99671.02;1446240;98;21076;-78
2021/06/03 10:16:44;;;;;;;36.63;18.73;;;;;;;13.64;100.00;99667.67;1449488;98;21080;-77
2021/06/03 10:22:17;;;;;;;102.95;51.55;;;;;;;13.65;100.00;99666.65;1456158;99;21154;-78
2021/06/03 10:25:10;;;;;;;75.30;37.67;;;;;;;13.61;100.00;99676.75;1456569;97;21132;-79
2021/06/03 10:27:48;;;;;;;86.17;44.88;;;;;;;13.58;100.00;99680.72;1430580;99;21112;-78
2021/06/03 10:30:24;;;;;;;96.37;50.78;;;;;;;13.54;100.00;99693.00;1433245;99;21085;-79
2021/06/03 10:32:55;;;;;;;52.00;27.62;;;;;;;13.56;100.00;99698.23;1410904;101;22140;-77
2021/06/03 10:35:27;;;;;;;37.93;19.15;;;;;;;13.64;100.00;99692.66;1410959;102;21145;-79
2021/06/03 10:37:55;;;;;;;50.08;31.50;;;;;;;13.66;100.00;99699.55;1411184;102;21129;-80
2021/06/03 10:40:27;;;;;;;122.70;59.60;;;;;;;13.68;100.00;99702.08;1410940;102;21141;-78
2021/06/03 10:42:54;;;;;;;310.80;109.75;;;;;;;13.70;100.00;99710.03;1411163;102;21159;-79
2021/06/03 10:45:23;;;;;;;309.77;117.33;;;;;;;13.60;100.00;99715.30;1411011;102;21646;-79
2021/06/03 10:47:49;;;;;;;321.95;110.80;;;;;;;13.44;100.00;99716.98;1411386;102;21188;-81
2021/06/03 10:50:42;;;;;;;231.32;82.17;;;;;;;13.31;100.00;99719.05;1411420;102;21137;-79
2021/06/03 10:53:14;;;;;;;80.65;32.95;;;;;;;13.16;100.00;99721.00;1410438;102;21140;-83
2021/06/03 10:55:45;;;;;;;83.37;33.83;;;;;;;13.03;100.00;99723.92;1411180;102;21109;-78
2021/06/03 10:58:13;;;;;;;52.45;22.42;;;;;;;12.93;100.00;99734.25;1411589;102;21147;-76
2021/06/03 11:00:44;;;;;;;68.00;36.40;;;;;;;12.83;100.00;99739.98;1412727;102;21127;-79
2021/06/03 11:03:15;;;;;;;42.33;24.30;;;;;;;12.77;100.00;99743.48;1460376;94;21117;-79
2021/06/03 11:05:46;;;;;;;47.88;27.17;;;;;;;12.68;100.00;99743.29;1518280;95;21065;-77
2021/06/03 11:08:28;;;;;;;25.60;10.80;;;;;;;12.59;100.00;99748.48;1480305;97;21082;-78
2021/06/03 11:11:12;;;;;;;24.12;9.25;;;;;;;12.56;100.00;99747.01;1473318;97;21092;-79
2021/06/03 11:13:53;;;;;;;18.67;7.37;;;;;;;12.54;100.00;99759.92;1465854;96;21180;-78
2021/06/03 11:16:35;;;;;;;20.15;8.70;;;;;;;12.54;100.00;99755.86;1460727;98;21104;-77
2021/06/03 11:19:09;;;;;;;249.85;114.40;;;;;;;12.53;100.00;99768.55;1501692;93;21232;-78
2021/06/03 11:21:46;;;;;;;160.85;79.50;;;;;;;12.57;100.00;99774.47;1535739;93;21111;-78
2021/06/03 11:24:38;;;;;;;236.25;111.08;;;;;;;12.54;100.00;99775.67;1539335;93;21086;-79
2021/06/03 11:27:14;;;;;;;361.87;269.98;;;;;;;12.52;100.00;99785.04;1539172;93;21170;-78
2021/06/03 11:29:54;;;;;;;161.65;99.37;;;;;;;12.49;100.00;99793.55;1466848;97;21124;-79
2021/06/03 11:32:30;;;;;;;349.10;157.10;;;;;;;12.48;100.00;99791.86;1484900;95;21093;-81
2021/06/03 11:35:00;;;;;;;185.18;92.80;;;;;;;12.52;100.00;99792.66;1389824;103;21125;-78
2021/06/03 11:37:30;;;;;;;100.95;49.05;;;;;;;12.53;100.00;99797.55;1389494;103;21693;-78
2021/06/03 11:40:08;;;;;;;89.10;43.30;;;;;;;12.55;100.00;99802.27;1382218;104;21150;-79
2021/06/03 11:42:49;;;;;;;65.92;34.43;;;;;;;12.59;100.00;99804.95;1389537;103;22134;-77
2021/06/03 11:45:37;;;;;;;149.05;69.20;;;;;;;12.66;100.00;99812.65;1389578;102;21667;-79
2021/06/03 11:48:15;;;;;;;142.70;68.33;;;;;;;12.65;100.00;99804.70;1350346;105;21192;-80
2021/06/03 11:50:49;;;;;;;69.70;35.70;;;;;;;12.64;100.00;99816.56;1344542;105;21167;-80
2021/06/03 11:53:29;;;;;;;94.92;49.33;;;;;;;12.68;100.00;99815.17;1341805;107;21202;-89
2021/06/03 11:56:16;;;;;;;94.92;45.90;;;;;;;12.70;100.00;99821.24;1339233;107;21158;-83
2021/06/03 11:58:46;;;;;;;68.67;42.08;;;;;;;12.71;100.00;99822.41;1341652;103;21214;-87
2021/06/03 12:01:22;;;;;;;48.20;29.37;;;;;;;12.71;100.00;99826.98;1341349;106;21232;-79
2021/06/03 12:04:12;;;;;;;28.05;14.33;;;;;;;12.66;100.00;99830.28;1340902;107;21206;-79